createdAt,value
2022-09-01T00:03:25.085Z,28.3208
2022-09-01T00:08:27.915Z,28.35953
2022-09-01T00:13:28.942Z,28.34272
2022-09-01T00:18:30.030Z,28.28347
2022-09-01T00:23:31.147Z,28.24209
2022-09-01T00:28:32.094Z,28.20143
2022-09-01T00:33:33.290Z,28.18979
2022-09-01T00:38:34.350Z,28.076
2022-09-01T00:43:35.325Z,27.99847
2022-09-01T00:48:36.251Z,27.96273
2022-09-01T00:53:38.495Z,27.899
2022-09-01T00:58:39.575Z,27.91723
2022-09-01T01:03:40.498Z,27.95989
2022-09-01T01:08:41.424Z,27.90099
2022-09-01T01:13:42.347Z,27.92985
2022-09-01T01:18:43.332Z,27.89417
2022-09-01T01:23:44.341Z,27.96125
2022-09-01T01:28:45.289Z,27.96635
2022-09-01T01:33:46.270Z,28.08039
2022-09-01T01:38:47.245Z,28.11271
2022-09-01T01:43:48.292Z,28.13712
2022-09-01T01:48:49.242Z,28.20404
2022-09-01T01:53:50.115Z,28.24065
2022-09-01T01:58:51.010Z,28.29402
2022-09-01T02:03:51.987Z,28.36691
2022-09-01T02:08:53.118Z,28.41478
2022-09-01T02:13:54.076Z,28.49992
2022-09-01T02:18:55.108Z,28.59441
2022-09-01T02:23:56.077Z,28.73852
2022-09-01T02:28:57.104Z,28.78087
2022-09-01T02:33:58.008Z,28.89624
2022-09-01T02:38:59.147Z,28.99708
2022-09-01T02:44:00.608Z,29.15301
2022-09-01T02:49:01.710Z,29.23757
2022-09-01T02:54:02.833Z,29.35334
2022-09-01T02:59:04.193Z,29.51064
2022-09-01T03:04:05.195Z,29.62586
2022-09-01T03:09:06.126Z,29.74596
2022-09-01T03:14:07.045Z,29.97561
2022-09-01T03:19:07.964Z,30.02983
2022-09-01T03:24:08.900Z,30.16363
2022-09-01T03:29:09.797Z,30.24311
2022-09-01T03:34:10.887Z,30.4018
2022-09-01T03:39:16.482Z,30.55801
2022-09-01T03:44:17.752Z,30.69571
2022-09-01T03:49:18.659Z,30.81071
2022-09-01T03:54:19.570Z,30.91317
2022-09-01T03:59:20.433Z,30.94544
2022-09-01T04:04:21.397Z,31.23895
2022-09-01T04:09:22.354Z,31.29344
2022-09-01T04:14:23.295Z,31.41402
2022-09-01T04:19:24.186Z,31.57585
2022-09-01T04:24:25.082Z,31.71484
2022-09-01T04:29:26.012Z,31.61488
2022-09-01T04:34:26.908Z,31.80704
2022-09-01T04:39:27.925Z,32.02978
2022-09-01T04:44:28.876Z,32.03025
2022-09-01T04:49:29.815Z,32.14452
2022-09-01T04:54:30.751Z,32.20381
2022-09-01T04:59:31.673Z,32.19037
2022-09-01T05:04:32.586Z,32.32182
2022-09-01T05:09:33.581Z,32.32104
2022-09-01T05:14:34.566Z,32.32641
2022-09-01T05:19:35.567Z,32.34982
2022-09-01T05:24:41.273Z,32.27254
2022-09-01T05:29:43.099Z,32.23095
2022-09-01T05:34:44.048Z,32.24843
2022-09-01T05:39:45.045Z,32.10412
2022-09-01T05:44:45.956Z,32.07848
2022-09-01T05:49:46.890Z,31.96329
2022-09-01T05:54:47.784Z,31.88468
2022-09-01T05:59:51.034Z,31.8359
2022-09-01T06:04:51.947Z,31.67848
2022-09-01T06:09:52.920Z,31.41099
2022-09-01T06:14:53.844Z,31.29597
2022-09-01T06:19:54.805Z,31.21689
2022-09-01T06:25:01.023Z,31.10138
2022-09-01T06:30:03.056Z,30.92513
2022-09-01T06:35:03.982Z,30.67722
2022-09-01T06:40:06.271Z,30.39133
2022-09-01T06:45:07.204Z,30.26212
2022-09-01T06:50:08.361Z,30.02622
2022-09-01T06:55:09.403Z,29.86005
2022-09-01T07:00:10.365Z,29.59367
2022-09-01T07:05:59.827Z,29.41965
2022-09-01T07:48:06.780Z,26.24598
2022-09-01T07:53:07.794Z,26.07451
2022-09-01T07:58:08.651Z,25.81792
2022-09-01T08:03:09.785Z,25.55778
2022-09-01T08:08:19.334Z,25.32195
2022-09-01T08:13:21.795Z,24.92088
2022-09-01T08:18:23.350Z,24.40293
2022-09-01T08:23:24.276Z,23.94833
2022-09-01T08:28:26.940Z,23.05584
2022-09-01T08:33:28.180Z,23.32994
2022-09-01T08:38:29.225Z,22.12668
2022-09-01T08:43:30.248Z,22.61548
2022-09-01T08:49:23.762Z,22.54887
2022-09-01T08:54:29.414Z,22.15655
2022-09-01T08:59:31.087Z,21.99688
2022-09-01T09:04:32.072Z,20.54282
2022-09-01T09:09:34.115Z,20.52923
2022-09-01T09:14:35.227Z,19.78117
2022-09-01T09:19:36.220Z,19.39047
2022-09-01T09:24:39.573Z,19.38418
2022-09-01T09:29:41.378Z,19.57331
2022-09-01T09:34:42.338Z,19.46894
2022-09-01T09:39:43.287Z,19.24249
2022-09-01T09:44:44.250Z,14.67725
2022-09-01T09:49:48.761Z,13.11503
2022-09-01T09:54:49.970Z,13.36964
2022-09-01T09:59:59.193Z,15.03578
2022-09-01T10:05:02.471Z,15.37052
2022-09-01T10:10:03.402Z,15.60723
2022-09-01T10:15:06.993Z,16.58847
2022-09-01T10:20:12.916Z,16.90266
2022-09-01T10:25:13.871Z,17.23745
2022-09-01T10:30:19.140Z,17.19814
2022-09-01T10:35:21.320Z,17.37917
2022-09-01T10:40:30.337Z,16.73772
2022-09-01T10:45:32.233Z,17.19764
2022-09-01T10:50:35.302Z,17.09344
2022-09-01T10:55:36.600Z,17.14194
2022-09-01T11:00:37.700Z,16.74818
2022-09-01T11:05:38.759Z,16.74119
2022-09-01T11:10:39.672Z,17.03721
2022-09-01T11:15:40.959Z,16.97093
2022-09-01T11:20:42.034Z,17.02025
2022-09-01T11:25:43.781Z,17.19673
2022-09-01T11:30:44.744Z,16.85143
2022-09-01T11:35:45.691Z,17.04753
2022-09-01T11:40:46.696Z,17.46378
2022-09-01T11:45:47.664Z,17.64629
2022-09-01T11:50:49.312Z,17.86992
2022-09-01T11:55:50.309Z,18.00932
2022-09-01T12:00:51.197Z,18.15639
2022-09-01T12:05:52.107Z,17.91505
2022-09-01T12:10:53.037Z,17.86093
2022-09-01T12:16:14.476Z,17.92633
2022-09-01T12:21:18.861Z,18.00495
2022-09-01T12:26:19.758Z,18.24365
2022-09-01T12:31:21.104Z,18.27804
2022-09-01T12:36:22.211Z,18.15099
2022-09-01T12:41:25.160Z,18.05244
2022-09-01T12:46:27.032Z,17.94527
2022-09-01T12:51:31.014Z,17.91739
2022-09-01T12:56:32.549Z,17.81016
2022-09-01T13:01:33.767Z,17.86821
2022-09-01T13:06:34.707Z,17.69272
2022-09-01T13:12:06.744Z,17.75641
2022-09-01T13:17:10.073Z,17.60485
2022-09-01T13:22:15.423Z,17.70148
2022-09-01T13:27:23.962Z,17.61723
2022-09-01T13:32:25.256Z,17.487
2022-09-01T13:37:28.013Z,16.95645
2022-09-01T13:42:29.049Z,16.63317
2022-09-01T13:47:30.479Z,16.50025
2022-09-01T13:52:31.788Z,16.41739
2022-09-01T13:57:36.137Z,16.0488
2022-09-01T14:02:37.697Z,16.24195
2022-09-01T14:07:38.741Z,16.29811
2022-09-01T14:12:39.664Z,16.26557
2022-09-01T14:17:40.595Z,16.18741
2022-09-01T14:22:41.620Z,16.09802
2022-09-01T14:27:42.533Z,15.97372
2022-09-01T14:32:45.498Z,15.9482
2022-09-01T14:37:46.528Z,15.99723
2022-09-01T14:42:47.541Z,15.83862
2022-09-01T14:47:48.620Z,15.94702
2022-09-01T14:52:49.552Z,15.69491
2022-09-01T14:57:50.460Z,15.54239
2022-09-01T15:02:51.414Z,15.39742
2022-09-01T15:07:52.365Z,15.27636
2022-09-01T15:12:53.321Z,15.36149
2022-09-01T15:17:54.332Z,15.45765
2022-09-01T15:22:55.553Z,15.51285
2022-09-01T15:27:56.503Z,15.98513
2022-09-01T15:32:57.401Z,16.05278
2022-09-01T15:37:58.412Z,16.05286
2022-09-01T15:42:59.355Z,16.01847
2022-09-01T15:48:00.262Z,15.93592
2022-09-01T15:53:01.494Z,16.01501
2022-09-01T15:58:02.691Z,15.94609
2022-09-01T16:03:03.639Z,16.11405
2022-09-01T16:08:04.624Z,15.90379
2022-09-01T16:13:05.552Z,16.21085
2022-09-01T16:18:06.458Z,16.75346
2022-09-01T16:23:07.387Z,17.11288
2022-09-01T16:28:08.318Z,17.47349
2022-09-01T16:33:09.265Z,17.72329
2022-09-01T16:38:10.177Z,17.77919
2022-09-01T16:43:12.359Z,17.97061
2022-09-01T16:48:13.549Z,17.98966
2022-09-01T16:53:14.495Z,18.14891
2022-09-01T16:58:18.751Z,18.22119
2022-09-01T17:03:22.936Z,18.44442
2022-09-01T17:08:35.216Z,18.44226
2022-09-01T17:13:36.159Z,18.51967
2022-09-01T17:18:37.102Z,18.52335
2022-09-01T17:23:38.040Z,18.58966
2022-09-01T17:28:38.994Z,18.64893
2022-09-01T17:33:39.897Z,18.89081
2022-09-01T17:38:40.778Z,18.97456
2022-09-01T17:43:41.879Z,19.1086
2022-09-01T17:48:42.784Z,19.22442
2022-09-01T17:53:43.757Z,19.33278
2022-09-01T17:58:44.802Z,19.48489
2022-09-01T18:03:45.834Z,19.77365
2022-09-01T18:08:46.764Z,19.86499
2022-09-01T18:13:53.230Z,20.15886
2022-09-01T18:18:54.819Z,20.29794
2022-09-01T18:23:55.783Z,20.57741
2022-09-01T18:28:56.688Z,20.78799
2022-09-01T18:33:58.082Z,21.0115
2022-09-01T18:38:59.051Z,21.14889
2022-09-01T18:44:00.063Z,21.31998
2022-09-01T18:49:01.305Z,21.4827
2022-09-01T18:54:02.798Z,21.66253
2022-09-01T18:59:03.732Z,21.76953
2022-09-01T19:04:09.477Z,21.93077
2022-09-01T19:09:11.310Z,22.26183
2022-09-01T19:14:12.340Z,22.43637
2022-09-01T19:19:13.310Z,22.5676
2022-09-01T19:24:14.287Z,22.80141
2022-09-01T19:29:15.215Z,23.10046
2022-09-01T19:34:16.126Z,23.21228
2022-09-01T19:39:17.031Z,23.33886
2022-09-01T19:44:17.933Z,23.56088
2022-09-01T19:49:18.858Z,23.72153
2022-09-01T19:54:19.777Z,23.80977
2022-09-01T19:59:20.750Z,24.0913
2022-09-01T20:04:21.778Z,24.26237
2022-09-01T20:09:22.711Z,24.37887
2022-09-01T20:14:23.645Z,24.53157
2022-09-01T20:19:24.573Z,24.59381
2022-09-01T20:24:25.555Z,24.73467
2022-09-01T20:29:26.525Z,24.82235
2022-09-01T20:34:27.444Z,25.04669
2022-09-01T20:39:28.434Z,25.17443
2022-09-01T20:44:29.457Z,25.28474
2022-09-01T20:49:30.442Z,25.37559
2022-09-01T20:54:31.690Z,25.43059
2022-09-01T20:59:32.578Z,25.45033
2022-09-01T21:04:33.458Z,25.56712
2022-09-01T21:09:34.449Z,25.74357
2022-09-01T21:14:35.455Z,25.82856
2022-09-01T21:19:36.638Z,25.84784
2022-09-01T21:24:37.603Z,25.97516
2022-09-01T21:29:38.621Z,26.03164
2022-09-01T21:34:39.520Z,26.15432
2022-09-01T21:39:40.445Z,26.37937
2022-09-01T21:44:41.433Z,26.53238
2022-09-01T21:49:42.333Z,26.69052
2022-09-01T21:54:43.260Z,26.67394
2022-09-01T21:59:44.176Z,26.78826
2022-09-01T22:04:45.166Z,26.87317
2022-09-01T22:09:48.477Z,27.04821
2022-09-01T22:14:49.383Z,27.1108
2022-09-01T22:19:50.383Z,27.26986
2022-09-01T22:24:51.345Z,27.44518
2022-09-01T22:29:52.251Z,27.67454
2022-09-01T22:34:53.209Z,27.81882
2022-09-01T22:39:54.113Z,27.9755
2022-09-01T22:44:55.040Z,28.04322
2022-09-01T22:49:56.016Z,28.18357
2022-09-01T22:54:56.975Z,28.37717
2022-09-01T22:59:58.063Z,28.45774
2022-09-01T23:04:59.003Z,28.53695
2022-09-01T23:09:59.982Z,28.60377
2022-09-01T23:15:00.992Z,28.71344
2022-09-01T23:20:02.385Z,28.82136
2022-09-01T23:25:03.398Z,28.88818
2022-09-01T23:30:04.359Z,28.96739
2022-09-01T23:35:05.301Z,29.11168
2022-09-01T23:40:06.254Z,29.15439
2022-09-01T23:45:07.217Z,29.22642
2022-09-01T23:50:08.247Z,29.38236
2022-09-01T23:55:09.185Z,29.52622
